Time;durP1;ratioP1;P1;durP2;ratioP2;P2;SDS_P1;SDS_P2;PMS_P1;PMS_P2;Temp;Humidity;BMP_temperature;BMP_pressure;BME280_temperature;BME280_humidity;BME280_pressure;Samples;Min_cycle;Max_cycle;Signal;HPM_P1;HPM_P2
2021/01/12 00:00:18;;;;;;;35.20;16.85;;;2.80;99.90;;;;;;5047697;28;20036;-47
2021/01/12 00:02:43;;;;;;;27.20;16.92;;;2.80;99.90;;;;;;5046494;28;20179;-45
2021/01/12 00:05:09;;;;;;;29.92;17.58;;;2.70;99.90;;;;;;5047124;28;20025;-45
2021/01/12 00:07:35;;;;;;;27.10;16.65;;;2.80;99.90;;;;;;5046509;28;20489;-45
2021/01/12 00:10:01;;;;;;;27.10;17.00;;;2.70;99.90;;;;;;5051254;28;20130;-47
2021/01/12 00:12:26;;;;;;;28.20;16.83;;;2.70;99.90;;;;;;5051520;28;20040;-47
2021/01/12 00:14:52;;;;;;;29.30;17.60;;;2.70;99.90;;;;;;5049224;28;20040;-47
2021/01/12 00:17:18;;;;;;;31.73;17.63;;;2.70;99.90;;;;;;5049878;28;20070;-46
2021/01/12 00:19:43;;;;;;;27.85;15.90;;;2.70;99.90;;;;;;5051339;28;20025;-47
2021/01/12 00:22:16;;;;;;;31.40;17.83;;;2.70;99.90;;;;;;5051252;28;20477;-46
2021/01/12 00:24:47;;;;;;;26.30;15.68;;;2.80;99.90;;;;;;5049311;28;20037;-45
2021/01/12 00:27:13;;;;;;;26.42;16.23;;;2.70;99.90;;;;;;5051418;28;20049;-46
2021/01/12 00:29:39;;;;;;;31.38;16.90;;;2.80;99.90;;;;;;5051167;28;20510;-45
2021/01/12 00:32:15;;;;;;;27.85;16.42;;;2.80;99.90;;;;;;5050922;28;20044;-44
2021/01/12 00:34:40;;;;;;;29.92;17.25;;;2.70;99.90;;;;;;5050267;28;20047;-47
2021/01/12 00:37:06;;;;;;;31.75;16.80;;;2.70;99.90;;;;;;5050908;28;20021;-48
2021/01/12 00:39:31;;;;;;;30.35;16.63;;;2.70;99.90;;;;;;5050992;28;20064;-45
2021/01/12 00:41:57;;;;;;;30.75;17.52;;;2.70;99.90;;;;;;5050922;28;20080;-47
2021/01/12 00:44:24;;;;;;;28.60;16.67;;;2.70;99.90;;;;;;5050109;28;20039;-49
2021/01/12 00:46:50;;;;;;;30.10;16.88;;;2.70;99.90;;;;;;5050789;28;20386;-47
2021/01/12 00:49:18;;;;;;;29.50;17.17;;;2.60;99.90;;;;;;5050707;28;20029;-46
2021/01/12 00:51:44;;;;;;;33.03;18.52;;;2.60;99.90;;;;;;5050915;28;20025;-46
2021/01/12 00:54:14;;;;;;;26.80;17.20;;;2.60;99.90;;;;;;5050637;28;20024;-47
2021/01/12 00:56:40;;;;;;;30.88;16.88;;;2.60;99.90;;;;;;5048995;28;20036;-46
2021/01/12 00:59:05;;;;;;;29.00;17.10;;;2.60;99.90;;;;;;5050534;28;20025;-48
2021/01/12 01:01:31;;;;;;;31.85;18.10;;;2.60;99.90;;;;;;5050696;28;20076;-46
2021/01/12 01:03:57;;;;;;;29.85;17.73;;;2.60;99.90;;;;;;5050619;28;20569;-45
2021/01/12 01:06:24;;;;;;;31.70;17.13;;;2.60;99.90;;;;;;5049983;28;20104;-48
2021/01/12 01:08:50;;;;;;;32.47;19.27;;;2.60;99.90;;;;;;5050308;28;20098;-45
2021/01/12 01:11:16;;;;;;;30.90;18.27;;;2.50;99.90;;;;;;5050034;28;20540;-46
2021/01/12 01:13:42;;;;;;;33.67;18.02;;;2.60;99.90;;;;;;5050266;28;20036;-47
2021/01/12 01:16:08;;;;;;;32.92;18.58;;;2.50;99.90;;;;;;5049601;28;20025;-46
2021/01/12 01:18:33;;;;;;;34.00;19.95;;;2.50;99.90;;;;;;5050092;28;20028;-46
2021/01/12 01:20:59;;;;;;;41.88;21.10;;;2.60;99.90;;;;;;5049909;28;20024;-47
2021/01/12 01:23:25;;;;;;;30.02;16.42;;;2.50;99.90;;;;;;5050195;28;20100;-48
2021/01/12 01:25:51;;;;;;;29.92;17.45;;;2.60;99.90;;;;;;5049676;28;20229;-46
2021/01/12 01:28:21;;;;;;;28.80;17.45;;;2.60;99.90;;;;;;5048902;28;20025;-44
2021/01/12 01:30:52;;;;;;;29.48;17.25;;;2.60;99.90;;;;;;5049602;28;20044;-45
2021/01/12 01:33:17;;;;;;;28.00;17.15;;;2.60;99.90;;;;;;5049831;28;20037;-47
2021/01/12 01:35:43;;;;;;;31.33;17.42;;;2.60;99.90;;;;;;5049198;28;20505;-46
2021/01/12 01:38:09;;;;;;;28.25;16.35;;;2.70;99.90;;;;;;5049757;28;20025;-48
2021/01/12 01:40:34;;;;;;;26.65;16.55;;;2.60;99.90;;;;;;5049903;28;20091;-44
2021/01/12 01:43:00;;;;;;;29.83;15.77;;;2.60;99.90;;;;;;5049610;28;20092;-46
2021/01/12 01:45:25;;;;;;;27.85;15.73;;;2.70;99.90;;;;;;5048876;28;20108;-45
2021/01/12 01:47:52;;;;;;;26.73;16.02;;;2.70;99.90;;;;;;5049893;28;20025;-45
2021/01/12 01:50:20;;;;;;;26.33;15.15;;;2.80;99.90;;;;;;5049636;28;20222;-48
2021/01/12 01:52:53;;;;;;;29.98;15.60;;;2.80;99.90;;;;;;5049530;28;20091;-45
2021/01/12 01:55:19;;;;;;;26.63;15.85;;;2.80;99.90;;;;;;5047785;28;20028;-45
2021/01/12 01:57:45;;;;;;;23.98;14.38;;;2.80;99.90;;;;;;5031453;28;20500;-45
2021/01/12 02:00:11;;;;;;;27.40;16.02;;;2.80;99.90;;;;;;5048895;28;20040;-49
2021/01/12 02:02:38;;;;;;;25.77;16.27;;;2.80;99.90;;;;;;5047971;28;20196;-48
2021/01/12 02:05:08;;;;;;;29.13;16.27;;;2.80;99.90;;;;;;5048900;28;20029;-46
2021/01/12 02:07:34;;;;;;;28.50;15.43;;;2.80;99.90;;;;;;5049269;28;20044;-45
2021/01/12 02:10:01;;;;;;;24.80;15.27;;;2.90;99.90;;;;;;5047781;28;20070;-45
2021/01/12 02:12:31;;;;;;;24.77;15.00;;;2.90;99.90;;;;;;5049637;28;20028;-46
2021/01/12 02:14:57;;;;;;;26.15;15.88;;;2.90;99.90;;;;;;5048305;28;20032;-45
2021/01/12 02:17:27;;;;;;;22.88;15.02;;;2.90;99.90;;;;;;5049186;28;20048;-46
2021/01/12 02:19:53;;;;;;;26.45;16.80;;;2.90;99.90;;;;;;5049148;28;20100;-48
2021/01/12 02:22:21;;;;;;;26.67;15.50;;;2.90;99.90;;;;;;5049079;28;20025;-47
2021/01/12 02:24:47;;;;;;;26.63;16.25;;;2.90;99.90;;;;;;5046744;28;20032;-48
2021/01/12 02:27:22;;;;;;;24.65;14.55;;;2.90;99.90;;;;;;5048111;28;20040;-47
2021/01/12 02:29:49;;;;;;;23.95;13.85;;;3.00;99.90;;;;;;5048532;28;20021;-45
2021/01/12 02:32:19;;;;;;;22.95;13.98;;;3.00;99.90;;;;;;5048560;28;20566;-46
2021/01/12 02:34:46;;;;;;;24.67;16.45;;;3.00;99.90;;;;;;5048224;28;20461;-47
2021/01/12 02:37:15;;;;;;;26.65;16.58;;;3.00;99.90;;;;;;5048939;28;20072;-45
2021/01/12 02:39:42;;;;;;;26.52;16.10;;;3.00;99.90;;;;;;5048768;28;20057;-46
2021/01/12 02:42:17;;;;;;;24.50;14.40;;;3.00;99.90;;;;;;5049283;28;20486;-45
2021/01/12 02:44:44;;;;;;;24.67;15.23;;;3.00;99.90;;;;;;5048118;28;20025;-45
2021/01/12 02:47:09;;;;;;;24.52;15.88;;;3.00;99.90;;;;;;5048692;28;20115;-48
2021/01/12 02:49:35;;;;;;;25.48;14.35;;;3.00;99.90;;;;;;5048838;28;20084;-48
2021/01/12 02:52:00;;;;;;;26.00;15.95;;;3.00;99.90;;;;;;5048775;28;20542;-45
2021/01/12 02:54:27;;;;;;;26.60;15.50;;;3.00;99.90;;;;;;5048622;28;20033;-47
2021/01/12 02:56:53;;;;;;;28.33;14.88;;;3.00;99.90;;;;;;5048494;28;20024;-48
2021/01/12 02:59:19;;;;;;;25.30;14.05;;;3.10;99.90;;;;;;5048545;28;20036;-47
2021/01/12 03:01:44;;;;;;;25.98;15.65;;;3.00;99.90;;;;;;5048323;28;20021;-45
2021/01/12 03:04:10;;;;;;;25.73;14.75;;;3.00;99.90;;;;;;5048850;28;20111;-45
2021/01/12 03:06:35;;;;;;;24.90;14.63;;;3.00;99.90;;;;;;5047973;28;20104;-45
2021/01/12 03:09:01;;;;;;;24.55;15.32;;;3.00;99.90;;;;;;5048442;28;20033;-45
2021/01/12 03:11:26;;;;;;;28.92;15.55;;;3.00;99.90;;;;;;5048517;28;20427;-44
2021/01/12 03:13:52;;;;;;;25.95;14.70;;;3.00;99.90;;;;;;5048517;28;20116;-45
2021/01/12 03:16:18;;;;;;;23.80;14.30;;;3.00;99.90;;;;;;5047544;28;20144;-44
2021/01/12 03:18:43;;;;;;;20.58;13.73;;;3.00;99.90;;;;;;5048161;28;20666;-45
2021/01/12 03:21:09;;;;;;;25.27;14.85;;;3.10;99.90;;;;;;5046892;28;20048;-44
2021/01/12 03:23:34;;;;;;;24.08;14.20;;;3.00;99.90;;;;;;5048313;28;20505;-45
2021/01/12 03:26:00;;;;;;;21.95;14.07;;;3.00;99.90;;;;;;5047780;28;20018;-45
2021/01/12 03:28:25;;;;;;;23.02;13.55;;;3.00;99.90;;;;;;5047753;28;20025;-45
2021/01/12 03:30:51;;;;;;;21.52;13.65;;;3.00;99.90;;;;;;5047379;28;20082;-45
2021/01/12 03:33:16;;;;;;;22.58;13.63;;;3.00;99.90;;;;;;5048046;28;20025;-45
2021/01/12 03:35:42;;;;;;;26.05;14.10;;;3.00;99.90;;;;;;5047552;28;20188;-44
2021/01/12 03:38:07;;;;;;;24.63;14.55;;;3.00;99.90;;;;;;5048062;28;20028;-46
2021/01/12 03:40:33;;;;;;;23.95;13.82;;;3.00;99.90;;;;;;5030093;28;20139;-45
2021/01/12 03:42:58;;;;;;;21.40;13.40;;;3.00;99.90;;;;;;5048198;28;20418;-46
2021/01/12 03:45:24;;;;;;;24.10;13.38;;;3.00;99.90;;;;;;5051313;28;20025;-45
2021/01/12 03:47:49;;;;;;;22.55;13.57;;;3.10;99.90;;;;;;5052403;28;20103;-45
2021/01/12 03:50:15;;;;;;;20.20;11.93;;;3.10;99.90;;;;;;5051916;28;20076;-45
2021/01/12 03:52:41;;;;;;;22.92;14.32;;;3.10;99.90;;;;;;5051703;28;20101;-45
2021/01/12 03:55:07;;;;;;;21.85;13.80;;;3.10;99.90;;;;;;5051467;28;20474;-45
2021/01/12 03:57:32;;;;;;;20.77;12.38;;;3.10;99.90;;;;;;5051604;28;20033;-45
2021/01/12 03:59:58;;;;;;;20.55;12.77;;;3.10;99.90;;;;;;5050269;28;20502;-45
2021/01/12 04:02:23;;;;;;;21.73;12.25;;;3.10;99.90;;;;;;5051721;28;20044;-45
2021/01/12 04:04:49;;;;;;;22.30;11.95;;;3.10;99.90;;;;;;5051253;28;20025;-46
2021/01/12 04:07:14;;;;;;;19.83;12.38;;;3.10;99.90;;;;;;5051885;28;20029;-46
2021/01/12 04:09:40;;;;;;;19.63;12.52;;;3.10;99.90;;;;;;5051578;28;20029;-45
2021/01/12 04:12:06;;;;;;;21.20;12.80;;;3.10;99.90;;;;;;5051527;28;20021;-45
2021/01/12 04:14:31;;;;;;;18.25;11.32;;;3.20;99.90;;;;;;5049511;28;20445;-44
2021/01/12 04:16:57;;;;;;;18.98;11.98;;;3.10;99.90;;;;;;5051104;28;20051;-46
2021/01/12 04:19:22;;;;;;;19.80;12.05;;;3.20;99.90;;;;;;5051294;28;20489;-44
2021/01/12 04:21:48;;;;;;;18.88;11.77;;;3.20;99.90;;;;;;5051273;28;20075;-45
2021/01/12 04:24:13;;;;;;;20.00;12.70;;;3.20;99.90;;;;;;5051636;28;20497;-46
2021/01/12 04:26:38;;;;;;;18.65;11.30;;;3.20;99.90;;;;;;5049374;28;20017;-45
2021/01/12 04:29:04;;;;;;;20.10;11.50;;;3.20;99.90;;;;;;5051079;28;20040;-52
2021/01/12 04:31:31;;;;;;;20.73;11.98;;;3.10;99.90;;;;;;5050808;28;20547;-48
2021/01/12 04:33:56;;;;;;;20.33;10.57;;;3.10;99.90;;;;;;5049799;28;20850;-45
2021/01/12 04:36:22;;;;;;;19.95;12.23;;;3.10;99.90;;;;;;5049151;28;20037;-46
2021/01/12 04:38:47;;;;;;;18.95;11.00;;;3.10;99.90;;;;;;5050649;28;20029;-46
2021/01/12 04:41:15;;;;;;;18.02;11.98;;;3.10;99.90;;;;;;5050773;28;20032;-46
2021/01/12 04:43:40;;;;;;;16.60;10.77;;;3.10;99.90;;;;;;5050816;28;20029;-45
2021/01/12 04:46:06;;;;;;;19.55;12.10;;;3.20;99.90;;;;;;5050041;28;20032;-45
2021/01/12 04:48:31;;;;;;;17.20;11.48;;;3.10;99.90;;;;;;5050739;28;20033;-48
2021/01/12 04:51:02;;;;;;;17.73;11.30;;;3.10;99.90;;;;;;5050360;28;20047;-45
2021/01/12 04:53:35;;;;;;;;;;;3.00;99.90;;;;;;5051005;28;20086;-47
2021/01/12 04:56:01;;;;;;;15.00;9.73;;;3.10;99.90;;;;;;5049794;28;19999;-46
2021/01/12 04:58:37;;;;;;;17.77;10.75;;;3.10;99.90;;;;;;5050192;28;20108;-46
2021/01/12 05:01:11;;;;;;;18.55;11.02;;;3.00;99.90;;;;;;5050240;28;20025;-45
2021/01/12 05:03:38;;;;;;;16.67;10.50;;;3.10;99.90;;;;;;5050595;28;20032;-46
2021/01/12 05:06:04;;;;;;;19.55;11.73;;;3.00;99.90;;;;;;5049736;28;20032;-47
2021/01/12 05:08:29;;;;;;;20.70;11.70;;;3.00;99.90;;;;;;5050564;28;20029;-45
2021/01/12 05:10:57;;;;;;;18.55;10.32;;;2.90;99.90;;;;;;5050393;28;20339;-46
2021/01/12 05:13:26;;;;;;;20.48;11.38;;;2.90;99.90;;;;;;5050511;28;20020;-45
2021/01/12 05:15:53;;;;;;;18.70;11.68;;;2.90;99.90;;;;;;5049272;28;20029;-46
2021/01/12 05:18:19;;;;;;;17.75;11.50;;;2.90;99.90;;;;;;5048811;28;20493;-47
2021/01/12 05:20:49;;;;;;;20.52;12.32;;;2.80;99.90;;;;;;5050088;28;20053;-48
2021/01/12 05:23:22;;;;;;;21.05;13.23;;;2.70;99.90;;;;;;5050201;28;20067;-47
2021/01/12 05:25:49;;;;;;;22.20;12.55;;;2.70;99.90;;;;;;5049494;28;20067;-46
2021/01/12 05:28:17;;;;;;;19.85;11.75;;;2.70;99.90;;;;;;5049363;28;20059;-47
2021/01/12 05:30:43;;;;;;;22.67;12.68;;;2.80;99.90;;;;;;5048543;28;20040;-45
2021/01/12 05:33:08;;;;;;;19.40;12.20;;;2.70;99.90;;;;;;5049862;28;20021;-46
2021/01/12 05:35:38;;;;;;;20.42;12.15;;;2.70;99.90;;;;;;5049201;28;20191;-47
2021/01/12 05:38:09;;;;;;;13.82;8.43;;;2.80;99.90;;;;;;5049408;28;20158;-45
2021/01/12 05:40:40;;;;;;;19.33;10.85;;;2.70;99.90;;;;;;5049022;28;20562;-46
2021/01/12 05:43:07;;;;;;;18.73;11.57;;;2.70;99.90;;;;;;5047487;28;20021;-46
2021/01/12 05:45:37;;;;;;;17.77;10.25;;;2.70;99.90;;;;;;5048682;28;20021;-45
2021/01/12 05:48:03;;;;;;;14.63;9.98;;;2.60;99.90;;;;;;5049672;28;20337;-45
2021/01/12 05:50:30;;;;;;;17.55;11.43;;;2.70;99.90;;;;;;5049507;28;20057;-44
2021/01/12 05:53:07;;;;;;;19.65;10.75;;;2.70;99.90;;;;;;5043160;28;20459;-45
2021/01/12 05:55:39;;;;;;;16.85;10.70;;;2.60;99.90;;;;;;5047621;28;20659;-46
2021/01/12 05:58:09;;;;;;;17.35;10.43;;;2.70;99.90;;;;;;5048654;28;20040;-47
2021/01/12 06:00:40;;;;;;;20.08;12.10;;;2.70;99.90;;;;;;5049225;28;20029;-45
2021/01/12 06:03:07;;;;;;;18.50;10.82;;;2.70;99.90;;;;;;5049402;28;20405;-45
2021/01/12 06:05:33;;;;;;;15.60;10.05;;;2.70;99.90;;;;;;5048212;28;20032;-46
2021/01/12 06:07:59;;;;;;;17.20;10.18;;;2.70;99.90;;;;;;5048390;28;20397;-46
2021/01/12 06:10:27;;;;;;;14.60;10.02;;;2.70;99.90;;;;;;5048933;28;20082;-46
2021/01/12 06:12:56;;;;;;;18.83;11.05;;;2.70;99.90;;;;;;5047099;28;20107;-46
2021/01/12 06:15:26;;;;;;;15.32;9.43;;;2.70;99.90;;;;;;5047686;28;20033;-45
2021/01/12 06:18:04;;;;;;;14.38;9.88;;;2.70;99.90;;;;;;5048579;28;20033;-46
2021/01/12 06:20:43;;;;;;;16.13;10.05;;;2.70;99.90;;;;;;5046272;28;20136;-49
2021/01/12 06:23:11;;;;;;;16.90;10.10;;;2.70;99.90;;;;;;5047594;28;20067;-45
2021/01/12 06:25:38;;;;;;;17.08;10.10;;;2.70;99.90;;;;;;5046796;28;20108;-45
2021/01/12 06:28:04;;;;;;;12.27;8.63;;;2.70;99.90;;;;;;5044361;28;20846;-46
2021/01/12 06:30:29;;;;;;;17.65;11.02;;;2.80;99.90;;;;;;5045158;28;20106;-46
2021/01/12 06:32:56;;;;;;;15.43;9.95;;;2.80;99.90;;;;;;5043809;28;20071;-46
2021/01/12 06:35:21;;;;;;;16.65;9.70;;;2.80;99.90;;;;;;5047520;28;20060;-45
2021/01/12 06:37:50;;;;;;;15.90;10.07;;;2.80;99.90;;;;;;5048045;28;20068;-46
2021/01/12 06:40:19;;;;;;;15.65;9.57;;;2.70;99.90;;;;;;5046705;28;20051;-47
2021/01/12 06:42:45;;;;;;;15.50;8.90;;;2.80;99.90;;;;;;5047516;28;20042;-45
2021/01/12 06:45:11;;;;;;;17.75;10.30;;;2.80;99.90;;;;;;5046236;28;20028;-46
2021/01/12 06:47:38;;;;;;;16.55;9.68;;;2.70;99.90;;;;;;5047803;28;20021;-46
2021/01/12 06:50:12;;;;;;;14.20;9.55;;;2.80;99.90;;;;;;5047931;28;20078;-46
2021/01/12 06:52:46;;;;;;;14.32;9.23;;;2.70;99.90;;;;;;5046000;28;20032;-47
2021/01/12 06:55:14;;;;;;;14.85;9.52;;;2.80;99.90;;;;;;5044876;28;20086;-46
2021/01/12 06:57:44;;;;;;;15.02;9.77;;;2.80;99.90;;;;;;5047182;28;20097;-45
2021/01/12 07:00:10;;;;;;;19.35;9.38;;;2.70;99.90;;;;;;5047523;28;20044;-45
2021/01/12 07:02:36;;;;;;;15.32;8.57;;;2.80;99.90;;;;;;5047501;28;20025;-48
2021/01/12 07:05:09;;;;;;;13.85;8.82;;;2.80;99.90;;;;;;5045698;28;20046;-46
2021/01/12 07:07:42;;;;;;;13.35;8.40;;;2.80;99.90;;;;;;5045518;28;20024;-47
2021/01/12 07:10:16;;;;;;;12.88;8.27;;;2.80;99.90;;;;;;5047371;28;20022;-48
2021/01/12 07:12:42;;;;;;;13.40;8.10;;;2.80;99.90;;;;;;5047567;28;20466;-48
2021/01/12 07:15:16;;;;;;;12.98;7.88;;;2.80;99.90;;;;;;5046597;28;20024;-46
2021/01/12 07:17:54;;;;;;;13.02;8.48;;;2.90;99.90;;;;;;5047584;28;20021;-46
2021/01/12 07:20:27;;;;;;;13.75;8.27;;;2.90;99.90;;;;;;5050139;28;20025;-46
2021/01/12 07:22:54;;;;;;;12.27;7.32;;;2.90;99.90;;;;;;5047698;28;20028;-46
2021/01/12 07:25:27;;;;;;;12.68;8.20;;;3.00;99.90;;;;;;5051138;28;20052;-48
2021/01/12 07:28:08;;;;;;;13.15;8.18;;;3.00;99.90;;;;;;5048780;28;20021;-46
2021/01/12 07:30:36;;;;;;;12.98;8.27;;;3.00;99.90;;;;;;5048109;28;20032;-44
2021/01/12 07:33:04;;;;;;;11.32;7.70;;;3.00;99.90;;;;;;5051724;28;20060;-48
2021/01/12 07:35:33;;;;;;;9.70;7.25;;;3.10;99.90;;;;;;5051294;28;20219;-46
2021/01/12 07:37:59;;;;;;;11.57;7.30;;;3.10;99.90;;;;;;5051582;28;20450;-46
2021/01/12 07:40:25;;;;;;;10.88;7.07;;;3.20;99.90;;;;;;5051361;28;20061;-46
2021/01/12 07:43:01;;;;;;;9.77;6.80;;;3.20;99.90;;;;;;5051075;28;20441;-49
2021/01/12 07:45:34;;;;;;;11.77;6.45;;;3.20;99.90;;;;;;5050851;28;20056;-46
2021/01/12 07:48:02;;;;;;;8.00;6.05;;;3.30;99.90;;;;;;5051075;28;20031;-48
2021/01/12 07:50:29;;;;;;;9.02;6.50;;;3.30;99.90;;;;;;5049462;28;20067;-47
2021/01/12 07:52:55;;;;;;;11.20;6.70;;;3.30;99.90;;;;;;5048485;28;20025;-50
2021/01/12 07:55:22;;;;;;;8.15;5.72;;;3.30;99.90;;;;;;5050079;28;20176;-48
2021/01/12 07:57:48;;;;;;;9.57;5.70;;;3.40;99.90;;;;;;5051077;28;20020;-46
2021/01/12 08:00:15;;;;;;;7.88;4.90;;;3.40;99.90;;;;;;5050471;28;20393;-45
2021/01/12 08:02:52;;;;;;;7.88;5.53;;;3.40;99.90;;;;;;5049795;28;20896;-47
2021/01/12 08:05:20;;;;;;;8.13;5.22;;;3.40;99.90;;;;;;5048775;28;20029;-47
2021/01/12 08:07:45;;;;;;;7.82;5.35;;;3.40;99.90;;;;;;5049253;28;20064;-47
2021/01/12 08:10:11;;;;;;;7.50;4.85;;;3.40;99.90;;;;;;5051128;28;20268;-46
2021/01/12 08:12:37;;;;;;;6.47;4.95;;;3.40;99.90;;;;;;5051038;28;20024;-46
2021/01/12 08:15:16;;;;;;;8.55;5.63;;;3.40;99.90;;;;;;5050485;28;20025;-46
2021/01/12 08:17:46;;;;;;;6.25;4.60;;;3.40;99.90;;;;;;5051029;28;20053;-45
2021/01/12 08:20:13;;;;;;;8.35;5.57;;;3.50;99.90;;;;;;5051018;28;20025;-46
2021/01/12 08:22:39;;;;;;;7.07;4.63;;;3.50;99.90;;;;;;5051595;28;20033;-45
2021/01/12 08:25:06;;;;;;;7.60;4.97;;;3.50;99.90;;;;;;5050066;28;20040;-47
2021/01/12 08:27:33;;;;;;;7.82;5.22;;;3.50;99.90;;;;;;5048938;28;20033;-46
2021/01/12 08:30:00;;;;;;;7.65;4.90;;;3.50;99.90;;;;;;5049835;28;20044;-46
2021/01/12 08:32:31;;;;;;;8.27;5.57;;;3.50;99.90;;;;;;5049723;28;20025;-47
2021/01/12 08:35:00;;;;;;;7.13;4.75;;;3.50;99.90;;;;;;5050503;28;20057;-45
2021/01/12 08:37:27;;;;;;;6.57;4.80;;;3.50;99.90;;;;;;5050775;28;20297;-49
2021/01/12 08:39:56;;;;;;;7.88;4.53;;;3.60;99.90;;;;;;5050279;28;20394;-46
2021/01/12 08:42:23;;;;;;;7.97;5.10;;;3.60;99.90;;;;;;5050951;28;20469;-46
2021/01/12 08:44:49;;;;;;;6.45;5.03;;;3.60;99.90;;;;;;5048929;28;20033;-45
2021/01/12 08:47:14;;;;;;;7.40;5.00;;;3.70;99.90;;;;;;5050719;28;20030;-45
2021/01/12 08:49:40;;;;;;;10.38;4.90;;;3.70;99.90;;;;;;5050457;28;20611;-46
2021/01/12 08:52:06;;;;;;;6.82;4.95;;;3.70;99.90;;;;;;5050418;28;20029;-48
2021/01/12 08:54:33;;;;;;;7.25;4.95;;;3.80;99.90;;;;;;5049621;28;20045;-47
2021/01/12 08:57:00;;;;;;;11.00;4.80;;;3.80;99.90;;;;;;5050053;28;20195;-46
2021/01/12 08:59:29;;;;;;;6.65;4.15;;;3.80;99.90;;;;;;5049989;28;20021;-47
2021/01/12 09:01:56;;;;;;;6.65;4.47;;;3.90;99.90;;;;;;5030288;28;20013;-45
2021/01/12 09:04:22;;;;;;;7.30;4.50;;;4.00;99.90;;;;;;5042498;28;20017;-45
2021/01/12 09:06:58;;;;;;;6.53;4.60;;;4.00;99.90;;;;;;5050063;28;20028;-47
2021/01/12 09:09:24;;;;;;;7.38;4.65;;;4.20;99.90;;;;;;5050214;28;20559;-45
2021/01/12 09:11:49;;;;;;;7.10;4.78;;;4.20;99.90;;;;;;5050470;28;20021;-47
2021/01/12 09:14:22;;;;;;;5.00;4.03;;;4.20;99.90;;;;;;5050006;28;20029;-45
2021/01/12 09:16:53;;;;;;;5.63;4.47;;;4.30;99.90;;;;;;5050063;28;20083;-49
2021/01/12 09:19:18;;;;;;;5.90;4.32;;;4.30;99.90;;;;;;5049880;28;20075;-47
2021/01/12 09:21:45;;;;;;;5.55;4.25;;;4.20;99.90;;;;;;5048758;28;20417;-44
2021/01/12 09:24:20;;;;;;;5.90;4.28;;;4.20;99.90;;;;;;5050089;28;20025;-46
2021/01/12 09:26:47;;;;;;;6.38;4.80;;;4.20;99.90;;;;;;5049511;28;20024;-46
2021/01/12 09:29:13;;;;;;;6.18;4.13;;;4.30;99.90;;;;;;5049355;28;20115;-45
2021/01/12 09:31:47;;;;;;;5.38;3.83;;;4.30;99.90;;;;;;5048335;28;20112;-46
2021/01/12 09:34:21;;;;;;;6.13;4.18;;;4.30;99.90;;;;;;5049737;28;20410;-45
2021/01/12 09:36:46;;;;;;;5.70;4.38;;;4.40;99.90;;;;;;5049424;28;20028;-48
2021/01/12 09:39:12;;;;;;;6.97;5.05;;;4.30;99.90;;;;;;5047997;28;20040;-46
2021/01/12 09:41:39;;;;;;;7.13;4.93;;;4.30;99.90;;;;;;5049893;28;20083;-45
2021/01/12 09:44:05;;;;;;;6.30;4.57;;;4.30;99.90;;;;;;5049812;28;20025;-45
2021/01/12 09:46:30;;;;;;;5.70;4.28;;;4.40;99.90;;;;;;5049018;28;20033;-45
2021/01/12 09:48:56;;;;;;;8.25;5.25;;;4.40;99.90;;;;;;5049008;28;20358;-44
2021/01/12 09:51:24;;;;;;;6.95;5.00;;;4.40;99.90;;;;;;5049928;28;20405;-46
2021/01/12 09:53:49;;;;;;;6.65;4.43;;;4.40;99.90;;;;;;5049495;28;20112;-46
2021/01/12 09:56:16;;;;;;;5.47;4.20;;;4.40;99.90;;;;;;5048559;28;20108;-46
2021/01/12 09:58:42;;;;;;;5.47;4.45;;;4.40;99.90;;;;;;5048898;28;20448;-48
2021/01/12 10:01:09;;;;;;;7.15;4.22;;;4.40;99.90;;;;;;5048824;28;20040;-48
2021/01/12 10:03:34;;;;;;;7.28;4.15;;;4.40;99.90;;;;;;5049187;28;20060;-46
2021/01/12 10:06:00;;;;;;;5.82;4.20;;;4.40;99.90;;;;;;5046015;28;20441;-46
2021/01/12 10:08:26;;;;;;;5.15;4.00;;;4.40;99.90;;;;;;5048887;28;20555;-47
2021/01/12 10:10:55;;;;;;;6.45;4.43;;;4.40;99.90;;;;;;5047693;28;20056;-48
2021/01/12 10:13:21;;;;;;;7.47;4.63;;;4.40;99.90;;;;;;5048569;28;20479;-46
2021/01/12 10:15:47;;;;;;;6.05;4.38;;;4.30;99.90;;;;;;5048715;28;20032;-47
2021/01/12 10:18:13;;;;;;;6.40;4.38;;;4.30;99.90;;;;;;5047795;28;20895;-45
2021/01/12 10:20:39;;;;;;;7.20;5.20;;;4.30;99.90;;;;;;5045653;28;20049;-45
2021/01/12 10:23:04;;;;;;;5.22;4.05;;;4.40;99.90;;;;;;5048696;28;20049;-47
2021/01/12 10:25:30;;;;;;;7.32;4.93;;;4.40;99.90;;;;;;5047929;28;20508;-48
2021/01/12 10:27:56;;;;;;;6.25;4.78;;;4.40;99.90;;;;;;5048913;28;20493;-46
2021/01/12 10:30:22;;;;;;;6.78;5.00;;;4.30;99.90;;;;;;5048436;28;20533;-46
2021/01/12 10:32:48;;;;;;;7.38;5.43;;;4.30;99.90;;;;;;5047297;28;20079;-46
2021/01/12 10:35:14;;;;;;;8.80;5.82;;;4.30;99.90;;;;;;5047435;28;20029;-46
2021/01/12 10:37:40;;;;;;;8.10;5.68;;;4.30;99.90;;;;;;5048132;28;20032;-45
2021/01/12 10:40:06;;;;;;;9.82;6.43;;;4.30;99.90;;;;;;5046129;28;20025;-47
2021/01/12 10:42:32;;;;;;;9.43;5.50;;;4.30;99.90;;;;;;5046646;28;20033;-46
2021/01/12 10:44:59;;;;;;;9.18;5.78;;;4.30;99.90;;;;;;5046555;28;20417;-46
2021/01/12 10:47:24;;;;;;;9.63;5.88;;;4.30;99.90;;;;;;5048203;28;20467;-46
2021/01/12 10:49:50;;;;;;;11.25;6.20;;;4.30;99.90;;;;;;5047487;28;20036;-45
2021/01/12 10:52:16;;;;;;;9.15;6.32;;;4.30;99.90;;;;;;5047595;28;20456;-47
2021/01/12 10:54:44;;;;;;;7.68;5.53;;;4.30;99.90;;;;;;5046864;28;20124;-47
2021/01/12 10:57:09;;;;;;;5.70;4.05;;;4.30;99.90;;;;;;5047947;28;20017;-48
2021/01/12 10:59:35;;;;;;;4.13;2.40;;;4.20;99.90;;;;;;5047473;28;20036;-46
2021/01/12 11:02:02;;;;;;;3.67;1.30;;;4.10;99.90;;;;;;5047314;28;20100;-45
2021/01/12 11:04:28;;;;;;;1.17;0.88;;;4.10;99.90;;;;;;5046829;28;20032;-47
2021/01/12 11:06:55;;;;;;;2.05;1.00;;;4.00;99.90;;;;;;5047586;28;20124;-45
2021/01/12 11:09:22;;;;;;;5.03;1.50;;;4.00;99.90;;;;;;5046543;28;20033;-46
2021/01/12 11:11:52;;;;;;;9.38;1.30;;;3.90;99.90;;;;;;5047255;28;20021;-48
2021/01/12 11:14:18;;;;;;;4.82;1.40;;;3.80;99.90;;;;;;5046377;28;20119;-45
2021/01/12 11:16:45;;;;;;;4.25;1.50;;;3.70;99.90;;;;;;5046224;28;20035;-45
2021/01/12 11:19:11;;;;;;;2.53;1.02;;;3.70;99.90;;;;;;5046755;28;20040;-47
2021/01/12 11:21:41;;;;;;;1.95;0.90;;;3.60;99.90;;;;;;5046854;28;20107;-47
2021/01/12 11:24:07;;;;;;;2.70;1.00;;;3.60;99.90;;;;;;5045115;28;20025;-45
2021/01/12 11:26:33;;;;;;;1.90;1.00;;;3.50;99.90;;;;;;5045900;28;20033;-46
2021/01/12 11:28:58;;;;;;;2.13;1.10;;;3.50;99.90;;;;;;5046354;28;20043;-45
2021/01/12 11:31:24;;;;;;;3.03;1.20;;;3.50;99.90;;;;;;5044287;28;20052;-46
2021/01/12 11:33:50;;;;;;;1.13;0.85;;;3.40;99.90;;;;;;5045849;28;20021;-46
2021/01/12 11:36:16;;;;;;;6.00;1.42;;;3.40;99.90;;;;;;5046928;28;20025;-45
2021/01/12 11:38:42;;;;;;;6.55;1.00;;;3.40;99.90;;;;;;5046925;28;20406;-47
2021/01/12 11:41:09;;;;;;;1.75;0.85;;;3.40;99.90;;;;;;5047384;28;20478;-46
2021/01/12 11:43:35;;;;;;;4.45;1.02;;;3.40;99.90;;;;;;5046787;28;20029;-45
2021/01/12 11:46:01;;;;;;;3.63;1.20;;;3.50;99.90;;;;;;5047050;28;20478;-45
2021/01/12 11:48:26;;;;;;;4.13;1.05;;;3.60;99.90;;;;;;5047860;28;20055;-46
2021/01/12 11:50:52;;;;;;;3.63;1.10;;;3.60;99.90;;;;;;5047614;28;20037;-46
2021/01/12 11:53:17;;;;;;;2.15;1.08;;;3.70;99.90;;;;;;5047888;28;20032;-45
2021/01/12 11:55:43;;;;;;;6.05;1.55;;;3.70;99.90;;;;;;5047117;28;20420;-46
2021/01/12 11:58:08;;;;;;;3.10;1.00;;;3.80;99.90;;;;;;5047543;28;20025;-45
2021/01/12 12:00:34;;;;;;;5.55;1.15;;;3.70;99.90;;;;;;5047396;28;20075;-46
2021/01/12 12:02:59;;;;;;;4.30;0.90;;;3.70;99.90;;;;;;5046684;28;20047;-47
2021/01/12 12:05:24;;;;;;;2.47;0.70;;;3.70;99.90;;;;;;5048532;28;20106;-46
2021/01/12 12:07:50;;;;;;;4.47;0.98;;;3.60;99.90;;;;;;5051693;28;20029;-47
2021/01/12 12:10:15;;;;;;;3.35;0.93;;;3.60;99.90;;;;;;5050461;28;20044;-46
2021/01/12 12:12:41;;;;;;;6.38;1.00;;;3.60;99.90;;;;;;5051044;28;20493;-47
2021/01/12 12:15:07;;;;;;;5.70;1.33;;;3.60;99.90;;;;;;5049006;28;20033;-46
2021/01/12 12:17:33;;;;;;;5.63;0.90;;;3.60;99.90;;;;;;5050210;28;20068;-47
2021/01/12 12:19:58;;;;;;;2.72;1.20;;;3.60;99.90;;;;;;5050761;28;20020;-49
2021/01/12 12:22:24;;;;;;;3.28;0.90;;;3.60;99.90;;;;;;5049845;28;20025;-47
2021/01/12 12:24:49;;;;;;;4.75;1.83;;;3.60;99.90;;;;;;5050268;28;20057;-47
2021/01/12 12:27:19;;;;;;;3.25;1.50;;;3.70;99.90;;;;;;5050625;28;20525;-47
2021/01/12 12:29:45;;;;;;;3.92;1.08;;;3.70;99.90;;;;;;5047787;28;20440;-46
2021/01/12 12:32:10;;;;;;;5.82;1.00;;;3.70;99.90;;;;;;5050360;28;20341;-46
2021/01/12 12:34:36;;;;;;;3.35;1.48;;;3.60;99.90;;;;;;5048993;28;20037;-45
2021/01/12 12:37:01;;;;;;;10.68;1.65;;;3.60;99.90;;;;;;5049772;28;20070;-46
2021/01/12 12:39:27;;;;;;;3.42;2.08;;;3.60;99.90;;;;;;5049376;28;20029;-49
2021/01/12 12:41:53;;;;;;;5.70;1.95;;;3.60;99.90;;;;;;5048194;28;20029;-45
2021/01/12 12:44:18;;;;;;;5.13;1.88;;;3.60;99.90;;;;;;5049398;28;20310;-46